<?xml version="1.0" encoding="UTF-8" standalone="no" ?>
<gpx xmlns="http://www.topografix.com/GPX/1/1" xmlns:xsi="http://www.w3.org/2001/XMLSchema-instance" xsi:schemaLocation="http://www.topografix.com/GPX/1/1 http://www.topografix.com/GPX/1/1/gpx.xsd" version="1.1" creator="VisuGPX - https://www.visugpx.com">
  <metadata>
    <name>Rando autour d\'Audrieu</name>
    <desc><![CDATA[petite randonnée du Dimanche 16/11/2014 entre amis, temps variable]]></desc>
  </metadata>
  <trk>
    <name><![CDATA[Tracé actuel: 16 NOV 2014 13:00]]></name>
    <trkseg>
      <trkpt lat="49.20699" lon="-0.595">
        <ele>172.69</ele>
        <time>2014-11-16T12:00:28Z</time>
      </trkpt>
      <trkpt lat="49.20699" lon="-0.595">
        <ele>172.69</ele>
        <time>2014-11-16T12:00:29Z</time>
      </trkpt>
      <trkpt lat="49.20698" lon="-0.59497">
        <ele>172.69</ele>
        <time>2014-11-16T12:00:34Z</time>
      </trkpt>
      <trkpt lat="49.20697" lon="-0.59501">
        <ele>169.81</ele>
        <time>2014-11-16T12:00:46Z</time>
      </trkpt>
      <trkpt lat="49.20696" lon="-0.59502">
        <ele>165.96</ele>
        <time>2014-11-16T12:00:47Z</time>
      </trkpt>
      <trkpt lat="49.20696" lon="-0.59502">
        <ele>160.2</ele>
        <time>2014-11-16T12:00:49Z</time>
      </trkpt>
      <trkpt lat="49.20696" lon="-0.59502">
        <ele>157.31</ele>
        <time>2014-11-16T12:00:50Z</time>
      </trkpt>
      <trkpt lat="49.20696" lon="-0.59502">
        <ele>152.99</ele>
        <time>2014-11-16T12:00:51Z</time>
      </trkpt>
      <trkpt lat="49.20695" lon="-0.59502">
        <ele>149.14</ele>
        <time>2014-11-16T12:00:53Z</time>
      </trkpt>
      <trkpt lat="49.20695" lon="-0.59501">
        <ele>143.85</ele>
        <time>2014-11-16T12:00:55Z</time>
      </trkpt>
      <trkpt lat="49.20695" lon="-0.595">
        <ele>139.05</ele>
        <time>2014-11-16T12:00:57Z</time>
      </trkpt>
      <trkpt lat="49.20695" lon="-0.59499">
        <ele>134.72</ele>
        <time>2014-11-16T12:00:59Z</time>
      </trkpt>
      <trkpt lat="49.20695" lon="-0.59501">
        <ele>129.92</ele>
        <time>2014-11-16T12:01:01Z</time>
      </trkpt>
      <trkpt lat="49.20696" lon="-0.59502">
        <ele>129.92</ele>
        <time>2014-11-16T12:01:02Z</time>
      </trkpt>
      <trkpt lat="49.20696" lon="-0.59502">
        <ele>126.07</ele>
        <time>2014-11-16T12:01:03Z</time>
      </trkpt>
      <trkpt lat="49.20696" lon="-0.59503">
        <ele>122.71</ele>
        <time>2014-11-16T12:01:05Z</time>
      </trkpt>
      <trkpt lat="49.20696" lon="-0.59503">
        <ele>123.19</ele>
        <time>2014-11-16T12:01:06Z</time>
      </trkpt>
      <trkpt lat="49.20698" lon="-0.59503">
        <ele>119.34</ele>
        <time>2014-11-16T12:01:09Z</time>
      </trkpt>
      <trkpt lat="49.207" lon="-0.59501">
        <ele>115.01</ele>
        <time>2014-11-16T12:01:12Z</time>
      </trkpt>
      <trkpt lat="49.20701" lon="-0.59501">
        <ele>110.69</ele>
        <time>2014-11-16T12:01:15Z</time>
      </trkpt>
      <trkpt lat="49.20702" lon="-0.59502">
        <ele>106.84</ele>
        <time>2014-11-16T12:01:18Z</time>
      </trkpt>
      <trkpt lat="49.20704" lon="-0.59504">
        <ele>105.4</ele>
        <time>2014-11-16T12:01:21Z</time>
      </trkpt>
      <trkpt lat="49.20703" lon="-0.59506">
        <ele>105.4</ele>
        <time>2014-11-16T12:01:22Z</time>
      </trkpt>
      <trkpt lat="49.20685" lon="-0.59525">
        <ele>102.52</ele>
        <time>2014-11-16T12:01:29Z</time>
      </trkpt>
      <trkpt lat="49.20686" lon="-0.59517">
        <ele>99.15</ele>
        <time>2014-11-16T12:01:33Z</time>
      </trkpt>
      <trkpt lat="49.20688" lon="-0.59517">
        <ele>95.79</ele>
        <time>2014-11-16T12:01:38Z</time>
      </trkpt>
      <trkpt lat="49.20686" lon="-0.59526">
        <ele>92.9</ele>
        <time>2014-11-16T12:01:45Z</time>
      </trkpt>
      <trkpt lat="49.20687" lon="-0.59538">
        <ele>89.54</ele>
        <time>2014-11-16T12:01:54Z</time>
      </trkpt>
      <trkpt lat="49.20692" lon="-0.59524">
        <ele>86.18</ele>
        <time>2014-11-16T12:02:06Z</time>
      </trkpt>
      <trkpt lat="49.20692" lon="-0.59522">
        <ele>83.29</ele>
        <time>2014-11-16T12:02:13Z</time>
      </trkpt>
      <trkpt lat="49.20692" lon="-0.59521">
        <ele>80.41</ele>
        <time>2014-11-16T12:02:21Z</time>
      </trkpt>
      <trkpt lat="49.20687" lon="-0.59513">
        <ele>78</ele>
        <time>2014-11-16T12:02:35Z</time>
      </trkpt>
      <trkpt lat="49.20686" lon="-0.59513">
        <ele>76.08</ele>
        <time>2014-11-16T12:02:55Z</time>
      </trkpt>
      <trkpt lat="49.20685" lon="-0.59512">
        <ele>76.08</ele>
        <time>2014-11-16T12:03:13Z</time>
      </trkpt>
    </trkseg>
  </trk>
</gpx>